sensor_id;sensor_type;location;lat;lon;timestamp;pressure;altitude;pressure_sealevel;temperature;humidity
23166;BME280;11751;42.700;24.170;2023-05-23T00:01:29;93812.59;;;11.86;nan
23166;BME280;11751;42.700;24.170;2023-05-23T00:04:01;93815.47;;;12.02;nan
23166;BME280;11751;42.700;24.170;2023-05-23T00:06:27;93808.34;;;12.01;nan
23166;BME280;11751;42.700;24.170;2023-05-23T00:08:53;93810.88;;;11.66;nan
23166;BME280;11751;42.700;24.170;2023-05-23T00:11:18;93805.16;;;11.81;nan
23166;BME280;11751;42.700;24.170;2023-05-23T00:13:44;93806.72;;;11.74;nan
23166;BME280;11751;42.700;24.170;2023-05-23T00:16:10;93802.53;;;11.83;nan
23166;BME280;11751;42.700;24.170;2023-05-23T00:18:36;93811.50;;;11.81;nan
23166;BME280;11751;42.700;24.170;2023-05-23T00:21:02;93810.06;;;11.73;nan
23166;BME280;11751;42.700;24.170;2023-05-23T00:23:28;93809.66;;;11.76;nan
23166;BME280;11751;42.700;24.170;2023-05-23T00:25:56;93807.81;;;11.79;nan
23166;BME280;11751;42.700;24.170;2023-05-23T00:28:22;93814.72;;;11.78;nan
23166;BME280;11751;42.700;24.170;2023-05-23T00:30:47;93813.75;;;11.83;nan
23166;BME280;11751;42.700;24.170;2023-05-23T00:33:15;93804.38;;;11.88;nan
23166;BME280;11751;42.700;24.170;2023-05-23T00:35:41;93816.50;;;11.90;nan
23166;BME280;11751;42.700;24.170;2023-05-23T00:38:07;93800.06;;;11.87;nan
23166;BME280;11751;42.700;24.170;2023-05-23T00:40:33;93800.25;;;11.89;nan
23166;BME280;11751;42.700;24.170;2023-05-23T00:42:59;93808.31;;;11.85;nan
23166;BME280;11751;42.700;24.170;2023-05-23T00:45:25;93807.69;;;11.93;nan
23166;BME280;11751;42.700;24.170;2023-05-23T00:47:51;93794.00;;;11.97;nan
23166;BME280;11751;42.700;24.170;2023-05-23T00:50:17;93802.41;;;11.97;nan
23166;BME280;11751;42.700;24.170;2023-05-23T00:52:45;93805.38;;;11.99;nan
23166;BME280;11751;42.700;24.170;2023-05-23T00:55:12;93807.69;;;11.93;nan
23166;BME280;11751;42.700;24.170;2023-05-23T00:57:39;93797.03;;;11.92;nan
23166;BME280;11751;42.700;24.170;2023-05-23T01:00:11;93800.81;;;11.87;nan
23166;BME280;11751;42.700;24.170;2023-05-23T01:02:45;93798.41;;;11.84;nan
23166;BME280;11751;42.700;24.170;2023-05-23T01:05:15;93799.16;;;11.84;nan
23166;BME280;11751;42.700;24.170;2023-05-23T01:07:47;93802.91;;;11.79;nan
23166;BME280;11751;42.700;24.170;2023-05-23T01:10:13;93802.56;;;11.75;nan
23166;BME280;11751;42.700;24.170;2023-05-23T01:15:14;93809.19;;;11.63;nan
23166;BME280;11751;42.700;24.170;2023-05-23T01:17:56;93797.13;;;11.53;nan
23166;BME280;11751;42.700;24.170;2023-05-23T01:20:29;93800.31;;;11.42;nan
23166;BME280;11751;42.700;24.170;2023-05-23T01:28:02;93797.88;;;11.53;nan
23166;BME280;11751;42.700;24.170;2023-05-23T01:30:31;93798.59;;;11.54;nan
23166;BME280;11751;42.700;24.170;2023-05-23T01:32:58;93805.72;;;11.47;nan
23166;BME280;11751;42.700;24.170;2023-05-23T01:35:25;93796.03;;;11.41;nan
23166;BME280;11751;42.700;24.170;2023-05-23T01:37:54;93791.22;;;11.34;nan
23166;BME280;11751;42.700;24.170;2023-05-23T01:40:21;93787.94;;;11.20;nan
23166;BME280;11751;42.700;24.170;2023-05-23T01:42:47;93786.06;;;11.23;nan
23166;BME280;11751;42.700;24.170;2023-05-23T01:45:14;93776.94;;;11.15;nan
23166;BME280;11751;42.700;24.170;2023-05-23T01:47:40;93780.81;;;11.27;nan
23166;BME280;11751;42.700;24.170;2023-05-23T01:50:07;93783.47;;;11.17;nan
23166;BME280;11751;42.700;24.170;2023-05-23T01:52:33;93789.44;;;11.21;nan
23166;BME280;11751;42.700;24.170;2023-05-23T01:54:59;93780.66;;;11.17;nan
23166;BME280;11751;42.700;24.170;2023-05-23T01:57:27;93793.38;;;11.18;nan
23166;BME280;11751;42.700;24.170;2023-05-23T01:59:53;93786.16;;;11.08;nan
23166;BME280;11751;42.700;24.170;2023-05-23T02:02:19;93804.50;;;10.94;nan
23166;BME280;11751;42.700;24.170;2023-05-23T02:04:44;93798.69;;;11.00;nan
23166;BME280;11751;42.700;24.170;2023-05-23T02:07:09;93795.34;;;11.01;nan
23166;BME280;11751;42.700;24.170;2023-05-23T02:09:35;93798.28;;;11.03;nan
23166;BME280;11751;42.700;24.170;2023-05-23T02:12:00;93789.56;;;10.99;nan
23166;BME280;11751;42.700;24.170;2023-05-23T02:14:26;93804.47;;;11.02;nan
23166;BME280;11751;42.700;24.170;2023-05-23T02:16:52;93801.50;;;10.92;nan
23166;BME280;11751;42.700;24.170;2023-05-23T02:19:18;93798.19;;;10.86;nan
23166;BME280;11751;42.700;24.170;2023-05-23T02:21:43;93796.34;;;10.81;nan
23166;BME280;11751;42.700;24.170;2023-05-23T02:24:09;93800.81;;;10.84;nan
23166;BME280;11751;42.700;24.170;2023-05-23T02:26:35;93797.81;;;10.82;nan
23166;BME280;11751;42.700;24.170;2023-05-23T02:29:01;93787.81;;;10.64;nan
23166;BME280;11751;42.700;24.170;2023-05-23T02:31:26;93791.75;;;10.61;nan
23166;BME280;11751;42.700;24.170;2023-05-23T02:33:52;93801.78;;;10.72;nan
23166;BME280;11751;42.700;24.170;2023-05-23T02:36:17;93792.66;;;10.64;nan
23166;BME280;11751;42.700;24.170;2023-05-23T02:38:43;93794.19;;;10.57;nan
23166;BME280;11751;42.700;24.170;2023-05-23T02:41:08;93787.50;;;10.45;nan
23166;BME280;11751;42.700;24.170;2023-05-23T02:43:34;93802.06;;;10.44;nan
23166;BME280;11751;42.700;24.170;2023-05-23T02:45:59;93792.41;;;10.15;nan
23166;BME280;11751;42.700;24.170;2023-05-23T02:48:25;93787.56;;;10.08;nan
23166;BME280;11751;42.700;24.170;2023-05-23T02:50:50;93792.41;;;10.15;nan
23166;BME280;11751;42.700;24.170;2023-05-23T02:53:16;93787.19;;;10.12;nan
23166;BME280;11751;42.700;24.170;2023-05-23T02:55:42;93791.09;;;10.16;nan
23166;BME280;11751;42.700;24.170;2023-05-23T02:58:07;93796.91;;;10.11;nan
23166;BME280;11751;42.700;24.170;2023-05-23T03:02:58;93794.44;;;10.15;nan
23166;BME280;11751;42.700;24.170;2023-05-23T03:05:24;93795.75;;;10.21;nan
23166;BME280;11751;42.700;24.170;2023-05-23T03:07:49;93793.72;;;10.22;nan
23166;BME280;11751;42.700;24.170;2023-05-23T03:10:16;93789.97;;;9.97;nan
23166;BME280;11751;42.700;24.170;2023-05-23T03:12:42;93783.44;;;10.17;nan
23166;BME280;11751;42.700;24.170;2023-05-23T03:15:08;93784.75;;;10.30;nan
23166;BME280;11751;42.700;24.170;2023-05-23T03:17:34;93785.28;;;10.36;nan
23166;BME280;11751;42.700;24.170;2023-05-23T03:20:00;93787.69;;;10.47;nan
23166;BME280;11751;42.700;24.170;2023-05-23T03:22:25;93787.88;;;10.34;nan
23166;BME280;11751;42.700;24.170;2023-05-23T03:24:50;93783.78;;;10.43;nan
23166;BME280;11751;42.700;24.170;2023-05-23T03:27:16;93788.78;;;10.44;nan
23166;BME280;11751;42.700;24.170;2023-05-23T03:32:07;93782.47;;;10.44;nan
23166;BME280;11751;42.700;24.170;2023-05-23T03:39:23;93788.97;;;10.46;nan
23166;BME280;11751;42.700;24.170;2023-05-23T03:41:49;93779.16;;;10.30;nan
23166;BME280;11751;42.700;24.170;2023-05-23T03:44:16;93788.25;;;10.38;nan
23166;BME280;11751;42.700;24.170;2023-05-23T03:46:41;93785.66;;;10.25;nan
23166;BME280;11751;42.700;24.170;2023-05-23T03:49:07;93787.09;;;10.56;nan
23166;BME280;11751;42.700;24.170;2023-05-23T03:51:32;93803.94;;;10.41;nan
23166;BME280;11751;42.700;24.170;2023-05-23T03:53:58;93802.09;;;10.22;nan
23166;BME280;11751;42.700;24.170;2023-05-23T03:56:23;93771.06;;;10.49;nan
23166;BME280;11751;42.700;24.170;2023-05-23T03:58:49;93792.31;;;10.52;nan
23166;BME280;11751;42.700;24.170;2023-05-23T04:01:14;93789.66;;;10.69;nan
23166;BME280;11751;42.700;24.170;2023-05-23T04:03:40;93790.06;;;10.66;nan
23166;BME280;11751;42.700;24.170;2023-05-23T04:06:06;93801.28;;;10.58;nan
23166;BME280;11751;42.700;24.170;2023-05-23T04:08:31;93796.91;;;10.72;nan
23166;BME280;11751;42.700;24.170;2023-05-23T04:10:59;93791.50;;;10.74;nan
23166;BME280;11751;42.700;24.170;2023-05-23T04:13:26;93806.81;;;10.73;nan
23166;BME280;11751;42.700;24.170;2023-05-23T04:15:51;93803.88;;;10.64;nan
23166;BME280;11751;42.700;24.170;2023-05-23T04:18:17;93803.06;;;10.78;nan
23166;BME280;11751;42.700;24.170;2023-05-23T04:20:42;93807.00;;;10.75;nan
23166;BME280;11751;42.700;24.170;2023-05-23T04:23:08;93792.59;;;10.86;nan
23166;BME280;11751;42.700;24.170;2023-05-23T04:25:33;93794.16;;;11.11;nan
23166;BME280;11751;42.700;24.170;2023-05-23T04:27:59;93809.63;;;11.20;nan
23166;BME280;11751;42.700;24.170;2023-05-23T04:30:25;93794.56;;;11.40;nan
23166;BME280;11751;42.700;24.170;2023-05-23T04:32:51;93793.06;;;11.71;nan
23166;BME280;11751;42.700;24.170;2023-05-23T04:35:17;93798.13;;;11.72;nan
23166;BME280;11751;42.700;24.170;2023-05-23T04:37:43;93795.31;;;12.38;nan
23166;BME280;11751;42.700;24.170;2023-05-23T04:40:10;93810.06;;;12.79;nan
23166;BME280;11751;42.700;24.170;2023-05-23T04:42:35;93803.72;;;12.96;nan
23166;BME280;11751;42.700;24.170;2023-05-23T04:45:01;93799.59;;;13.66;nan
23166;BME280;11751;42.700;24.170;2023-05-23T04:47:28;93799.88;;;14.33;nan
23166;BME280;11751;42.700;24.170;2023-05-23T04:49:56;93816.00;;;14.68;nan
23166;BME280;11751;42.700;24.170;2023-05-23T04:52:22;93817.19;;;14.84;nan
23166;BME280;11751;42.700;24.170;2023-05-23T04:54:47;93816.06;;;15.34;nan
23166;BME280;11751;42.700;24.170;2023-05-23T04:57:13;93818.47;;;15.96;nan
23166;BME280;11751;42.700;24.170;2023-05-23T04:59:38;93809.00;;;16.22;nan
23166;BME280;11751;42.700;24.170;2023-05-23T05:02:04;93809.09;;;16.43;nan
23166;BME280;11751;42.700;24.170;2023-05-23T05:04:30;93823.81;;;16.72;nan
23166;BME280;11751;42.700;24.170;2023-05-23T05:06:56;93823.53;;;16.68;nan
23166;BME280;11751;42.700;24.170;2023-05-23T05:09:22;93811.31;;;17.16;nan
23166;BME280;11751;42.700;24.170;2023-05-23T05:11:47;93813.41;;;17.37;nan
23166;BME280;11751;42.700;24.170;2023-05-23T05:14:13;93812.53;;;17.67;nan
23166;BME280;11751;42.700;24.170;2023-05-23T05:16:38;93802.91;;;18.04;nan
23166;BME280;11751;42.700;24.170;2023-05-23T05:19:04;93806.47;;;18.16;nan
23166;BME280;11751;42.700;24.170;2023-05-23T05:21:29;93809.44;;;18.06;nan
23166;BME280;11751;42.700;24.170;2023-05-23T05:23:55;93810.06;;;18.05;nan
23166;BME280;11751;42.700;24.170;2023-05-23T05:26:21;93807.31;;;18.07;nan
23166;BME280;11751;42.700;24.170;2023-05-23T05:28:47;93803.53;;;18.14;nan
23166;BME280;11751;42.700;24.170;2023-05-23T05:31:13;93805.41;;;17.77;nan
23166;BME280;11751;42.700;24.170;2023-05-23T05:33:40;93811.56;;;17.41;nan
23166;BME280;11751;42.700;24.170;2023-05-23T05:36:06;93803.41;;;16.94;nan
23166;BME280;11751;42.700;24.170;2023-05-23T05:38:32;93809.00;;;16.31;nan
23166;BME280;11751;42.700;24.170;2023-05-23T05:40:57;93806.22;;;16.52;nan
23166;BME280;11751;42.700;24.170;2023-05-23T05:43:25;93810.16;;;16.89;nan
23166;BME280;11751;42.700;24.170;2023-05-23T05:45:50;93821.66;;;16.82;nan
23166;BME280;11751;42.700;24.170;2023-05-23T05:48:16;93815.63;;;16.97;nan
23166;BME280;11751;42.700;24.170;2023-05-23T05:50:42;93814.72;;;16.94;nan
23166;BME280;11751;42.700;24.170;2023-05-23T05:53:10;93812.13;;;17.28;nan
23166;BME280;11751;42.700;24.170;2023-05-23T05:55:35;93824.25;;;17.40;nan
23166;BME280;11751;42.700;24.170;2023-05-23T05:58:01;93813.50;;;17.60;nan
23166;BME280;11751;42.700;24.170;2023-05-23T06:00:26;93812.44;;;17.76;nan
23166;BME280;11751;42.700;24.170;2023-05-23T06:02:51;93812.00;;;17.91;nan
23166;BME280;11751;42.700;24.170;2023-05-23T06:05:22;93820.78;;;18.18;nan
23166;BME280;11751;42.700;24.170;2023-05-23T06:07:48;93806.00;;;18.19;nan
23166;BME280;11751;42.700;24.170;2023-05-23T06:10:14;93808.72;;;18.06;nan
23166;BME280;11751;42.700;24.170;2023-05-23T06:12:40;93817.66;;;17.91;nan
23166;BME280;11751;42.700;24.170;2023-05-23T06:15:06;93811.84;;;17.78;nan
23166;BME280;11751;42.700;24.170;2023-05-23T06:17:32;93815.53;;;17.80;nan
23166;BME280;11751;42.700;24.170;2023-05-23T06:19:57;93812.53;;;18.10;nan
23166;BME280;11751;42.700;24.170;2023-05-23T06:22:23;93801.56;;;18.05;nan
23166;BME280;11751;42.700;24.170;2023-05-23T06:24:48;93821.00;;;17.99;nan
23166;BME280;11751;42.700;24.170;2023-05-23T06:27:14;93821.03;;;18.10;nan
23166;BME280;11751;42.700;24.170;2023-05-23T06:29:39;93824.25;;;18.16;nan
23166;BME280;11751;42.700;24.170;2023-05-23T06:32:05;93817.13;;;18.27;nan
23166;BME280;11751;42.700;24.170;2023-05-23T06:34:31;93818.09;;;18.20;nan
23166;BME280;11751;42.700;24.170;2023-05-23T06:36:56;93819.09;;;18.36;nan
23166;BME280;11751;42.700;24.170;2023-05-23T06:39:21;93815.19;;;18.64;nan
23166;BME280;11751;42.700;24.170;2023-05-23T06:41:47;93819.59;;;18.32;nan
23166;BME280;11751;42.700;24.170;2023-05-23T06:44:13;93814.69;;;18.56;nan
23166;BME280;11751;42.700;24.170;2023-05-23T06:46:38;93814.91;;;18.37;nan
23166;BME280;11751;42.700;24.170;2023-05-23T06:49:04;93821.59;;;18.53;nan
23166;BME280;11751;42.700;24.170;2023-05-23T06:51:30;93814.94;;;18.60;nan
23166;BME280;11751;42.700;24.170;2023-05-23T06:53:55;93817.66;;;18.69;nan
23166;BME280;11751;42.700;24.170;2023-05-23T06:56:22;93806.31;;;18.46;nan
23166;BME280;11751;42.700;24.170;2023-05-23T06:58:48;93812.94;;;18.96;nan
23166;BME280;11751;42.700;24.170;2023-05-23T07:01:13;93810.84;;;18.86;nan
23166;BME280;11751;42.700;24.170;2023-05-23T07:03:38;93815.63;;;18.94;nan
23166;BME280;11751;42.700;24.170;2023-05-23T07:06:06;93811.81;;;19.01;nan
23166;BME280;11751;42.700;24.170;2023-05-23T07:08:32;93822.16;;;19.20;nan
23166;BME280;11751;42.700;24.170;2023-05-23T07:10:57;93820.94;;;19.59;nan
23166;BME280;11751;42.700;24.170;2023-05-23T07:13:22;93811.25;;;19.76;nan
23166;BME280;11751;42.700;24.170;2023-05-23T07:15:48;93807.31;;;19.94;nan
23166;BME280;11751;42.700;24.170;2023-05-23T07:18:13;93812.78;;;19.90;nan
23166;BME280;11751;42.700;24.170;2023-05-23T07:20:39;93804.53;;;20.07;nan
23166;BME280;11751;42.700;24.170;2023-05-23T07:23:04;93800.06;;;20.16;nan
23166;BME280;11751;42.700;24.170;2023-05-23T07:25:29;93800.59;;;20.26;nan
23166;BME280;11751;42.700;24.170;2023-05-23T07:27:55;93789.66;;;20.34;nan
23166;BME280;11751;42.700;24.170;2023-05-23T07:30:21;93794.09;;;20.37;nan
23166;BME280;11751;42.700;24.170;2023-05-23T07:32:47;93794.25;;;20.65;nan
23166;BME280;11751;42.700;24.170;2023-05-23T07:35:14;93787.22;;;20.93;nan
23166;BME280;11751;42.700;24.170;2023-05-23T07:37:39;93784.13;;;21.30;nan
23166;BME280;11751;42.700;24.170;2023-05-23T07:40:05;93784.88;;;21.17;nan
23166;BME280;11751;42.700;24.170;2023-05-23T07:42:33;93780.19;;;21.50;nan
23166;BME280;11751;42.700;24.170;2023-05-23T07:44:58;93775.94;;;21.78;nan
23166;BME280;11751;42.700;24.170;2023-05-23T07:47:24;93775.59;;;21.72;nan
23166;BME280;11751;42.700;24.170;2023-05-23T07:49:49;93772.84;;;22.03;nan
23166;BME280;11751;42.700;24.170;2023-05-23T07:54:41;93761.28;;;22.30;nan
23166;BME280;11751;42.700;24.170;2023-05-23T07:57:08;93765.41;;;22.55;nan
23166;BME280;11751;42.700;24.170;2023-05-23T08:01:58;93760.63;;;22.75;nan
23166;BME280;11751;42.700;24.170;2023-05-23T08:04:24;93758.72;;;23.13;nan
23166;BME280;11751;42.700;24.170;2023-05-23T08:06:49;93752.78;;;23.57;nan
23166;BME280;11751;42.700;24.170;2023-05-23T08:09:15;93750.91;;;23.63;nan
23166;BME280;11751;42.700;24.170;2023-05-23T08:11:40;93754.63;;;23.83;nan
23166;BME280;11751;42.700;24.170;2023-05-23T08:14:06;93748.59;;;23.75;nan
23166;BME280;11751;42.700;24.170;2023-05-23T08:16:33;93745.88;;;24.31;nan
23166;BME280;11751;42.700;24.170;2023-05-23T08:18:59;93748.66;;;24.29;nan
23166;BME280;11751;42.700;24.170;2023-05-23T08:21:24;93740.16;;;24.31;nan
23166;BME280;11751;42.700;24.170;2023-05-23T08:26:15;93747.19;;;24.46;nan
23166;BME280;11751;42.700;24.170;2023-05-23T08:28:40;93744.25;;;24.63;nan
23166;BME280;11751;42.700;24.170;2023-05-23T08:31:06;93742.47;;;24.54;nan
23166;BME280;11751;42.700;24.170;2023-05-23T08:33:31;93751.97;;;24.41;nan
23166;BME280;11751;42.700;24.170;2023-05-23T08:35:57;93743.22;;;24.37;nan
23166;BME280;11751;42.700;24.170;2023-05-23T08:38:22;93755.44;;;24.03;nan
23166;BME280;11751;42.700;24.170;2023-05-23T08:40:49;93750.09;;;23.61;nan
23166;BME280;11751;42.700;24.170;2023-05-23T08:45:44;93743.78;;;23.80;nan
23166;BME280;11751;42.700;24.170;2023-05-23T08:50:38;93739.41;;;24.14;nan
23166;BME280;11751;42.700;24.170;2023-05-23T08:53:04;93748.66;;;24.29;nan
23166;BME280;11751;42.700;24.170;2023-05-23T08:55:32;93732.88;;;24.28;nan
23166;BME280;11751;42.700;24.170;2023-05-23T08:57:58;93744.50;;;23.98;nan
23166;BME280;11751;42.700;24.170;2023-05-23T09:00:25;93744.56;;;23.82;nan
23166;BME280;11751;42.700;24.170;2023-05-23T09:02:51;93736.78;;;23.50;nan
23166;BME280;11751;42.700;24.170;2023-05-23T09:05:17;93733.66;;;23.61;nan
23166;BME280;11751;42.700;24.170;2023-05-23T09:07:45;93736.09;;;24.02;nan
23166;BME280;11751;42.700;24.170;2023-05-23T09:12:44;93740.41;;;23.35;nan
23166;BME280;11751;42.700;24.170;2023-05-23T09:15:10;93753.78;;;22.82;nan
23166;BME280;11751;42.700;24.170;2023-05-23T09:17:36;93756.44;;;22.47;nan
23166;BME280;11751;42.700;24.170;2023-05-23T09:20:13;93738.69;;;22.34;nan
23166;BME280;11751;42.700;24.170;2023-05-23T09:22:39;93750.03;;;22.62;nan
23166;BME280;11751;42.700;24.170;2023-05-23T09:25:04;93746.81;;;22.54;nan
23166;BME280;11751;42.700;24.170;2023-05-23T09:27:31;93738.31;;;22.26;nan
23166;BME280;11751;42.700;24.170;2023-05-23T09:29:56;93742.69;;;22.29;nan
23166;BME280;11751;42.700;24.170;2023-05-23T09:32:21;93736.66;;;21.34;nan
23166;BME280;11751;42.700;24.170;2023-05-23T09:35:01;93731.38;;;21.71;nan
23166;BME280;11751;42.700;24.170;2023-05-23T09:37:36;93727.44;;;22.07;nan
23166;BME280;11751;42.700;24.170;2023-05-23T09:40:09;93732.91;;;22.62;nan
23166;BME280;11751;42.700;24.170;2023-05-23T09:42:43;93731.38;;;22.92;nan
23166;BME280;11751;42.700;24.170;2023-05-23T09:45:10;93734.25;;;22.92;nan
23166;BME280;11751;42.700;24.170;2023-05-23T09:47:35;93729.47;;;22.81;nan
23166;BME280;11751;42.700;24.170;2023-05-23T09:52:35;93716.97;;;22.57;nan
23166;BME280;11751;42.700;24.170;2023-05-23T09:55:01;93739.03;;;22.88;nan
23166;BME280;11751;42.700;24.170;2023-05-23T09:57:26;93719.81;;;23.21;nan
23166;BME280;11751;42.700;24.170;2023-05-23T09:59:53;93717.78;;;23.24;nan
23166;BME280;11751;42.700;24.170;2023-05-23T10:02:44;93722.19;;;23.27;nan
23166;BME280;11751;42.700;24.170;2023-05-23T10:10:19;93721.84;;;22.40;nan
23166;BME280;11751;42.700;24.170;2023-05-23T10:15:14;93730.50;;;21.82;nan
23166;BME280;11751;42.700;24.170;2023-05-23T10:18:20;93730.97;;;21.92;nan
23166;BME280;11751;42.700;24.170;2023-05-23T10:20:48;93723.03;;;21.75;nan
23166;BME280;11751;42.700;24.170;2023-05-23T10:23:16;93724.03;;;21.66;nan
23166;BME280;11751;42.700;24.170;2023-05-23T10:25:43;93724.75;;;22.11;nan
23166;BME280;11751;42.700;24.170;2023-05-23T10:28:09;93722.66;;;22.42;nan
23166;BME280;11751;42.700;24.170;2023-05-23T10:30:34;93726.13;;;22.10;nan
23166;BME280;11751;42.700;24.170;2023-05-23T10:33:01;93720.69;;;21.56;nan
23166;BME280;11751;42.700;24.170;2023-05-23T10:43:39;93720.50;;;21.96;nan
23166;BME280;11751;42.700;24.170;2023-05-23T10:46:12;93714.09;;;22.57;nan
23166;BME280;11751;42.700;24.170;2023-05-23T10:48:43;93703.97;;;23.18;nan
23166;BME280;11751;42.700;24.170;2023-05-23T10:58:29;93704.53;;;24.93;nan
23166;BME280;11751;42.700;24.170;2023-05-23T11:00:59;93704.97;;;25.24;nan
23166;BME280;11751;42.700;24.170;2023-05-23T11:03:48;93685.00;;;25.26;nan
23166;BME280;11751;42.700;24.170;2023-05-23T11:19:34;93689.06;;;25.40;nan
23166;BME280;11751;42.700;24.170;2023-05-23T11:22:01;93683.16;;;25.56;nan
23166;BME280;11751;42.700;24.170;2023-05-23T11:29:57;93677.22;;;25.71;nan
23166;BME280;11751;42.700;24.170;2023-05-23T11:32:23;93683.50;;;26.10;nan
23166;BME280;11751;42.700;24.170;2023-05-23T11:34:51;93663.28;;;26.51;nan
23166;BME280;11751;42.700;24.170;2023-05-23T11:37:17;93672.75;;;26.81;nan
23166;BME280;11751;42.700;24.170;2023-05-23T11:39:43;93669.38;;;26.88;nan
23166;BME280;11751;42.700;24.170;2023-05-23T11:42:08;93668.34;;;26.78;nan
23166;BME280;11751;42.700;24.170;2023-05-23T11:44:34;93663.63;;;26.63;nan
23166;BME280;11751;42.700;24.170;2023-05-23T11:47:04;93656.25;;;26.56;nan
23166;BME280;11751;42.700;24.170;2023-05-23T11:49:34;93665.09;;;26.64;nan
23166;BME280;11751;42.700;24.170;2023-05-23T11:52:01;93663.00;;;25.97;nan
23166;BME280;11751;42.700;24.170;2023-05-23T11:54:27;93672.69;;;25.86;nan
23166;BME280;11751;42.700;24.170;2023-05-23T11:59:23;93673.91;;;24.97;nan
23166;BME280;11751;42.700;24.170;2023-05-23T12:04:15;93653.28;;;24.81;nan
23166;BME280;11751;42.700;24.170;2023-05-23T12:06:41;93660.09;;;24.72;nan
23166;BME280;11751;42.700;24.170;2023-05-23T12:09:10;93672.59;;;24.81;nan
23166;BME280;11751;42.700;24.170;2023-05-23T12:11:36;93655.75;;;25.10;nan
23166;BME280;11751;42.700;24.170;2023-05-23T12:14:01;93649.91;;;25.27;nan
23166;BME280;11751;42.700;24.170;2023-05-23T12:16:33;93657.38;;;25.15;nan
23166;BME280;11751;42.700;24.170;2023-05-23T12:21:45;93655.19;;;25.35;nan
23166;BME280;11751;42.700;24.170;2023-05-23T12:24:20;93647.13;;;25.51;nan
23166;BME280;11751;42.700;24.170;2023-05-23T12:26:53;93646.88;;;26.09;nan
23166;BME280;11751;42.700;24.170;2023-05-23T12:29:32;93645.31;;;26.27;nan
23166;BME280;11751;42.700;24.170;2023-05-23T12:34:24;93634.69;;;26.55;nan
23166;BME280;11751;42.700;24.170;2023-05-23T12:36:54;93639.63;;;27.01;nan
23166;BME280;11751;42.700;24.170;2023-05-23T12:39:29;93628.72;;;26.73;nan
23166;BME280;11751;42.700;24.170;2023-05-23T12:42:05;93637.56;;;26.81;nan
23166;BME280;11751;42.700;24.170;2023-05-23T12:44:31;93631.69;;;26.51;nan
23166;BME280;11751;42.700;24.170;2023-05-23T12:46:56;93629.25;;;25.74;nan
23166;BME280;11751;42.700;24.170;2023-05-23T12:49:22;93630.69;;;25.30;nan
23166;BME280;11751;42.700;24.170;2023-05-23T12:51:47;93625.13;;;25.36;nan
23166;BME280;11751;42.700;24.170;2023-05-23T12:54:13;93631.38;;;25.09;nan
23166;BME280;11751;42.700;24.170;2023-05-23T12:56:38;93632.00;;;24.47;nan
23166;BME280;11751;42.700;24.170;2023-05-23T12:59:04;93636.94;;;24.45;nan
23166;BME280;11751;42.700;24.170;2023-05-23T13:01:29;93632.84;;;24.13;nan
23166;BME280;11751;42.700;24.170;2023-05-23T13:03:55;93620.50;;;24.09;nan
23166;BME280;11751;42.700;24.170;2023-05-23T13:06:21;93634.53;;;23.83;nan
23166;BME280;11751;42.700;24.170;2023-05-23T13:08:47;93626.59;;;23.64;nan
23166;BME280;11751;42.700;24.170;2023-05-23T13:11:15;93615.84;;;23.63;nan
23166;BME280;11751;42.700;24.170;2023-05-23T13:13:41;93618.97;;;23.34;nan
23166;BME280;11751;42.700;24.170;2023-05-23T13:16:07;93620.75;;;23.43;nan
23166;BME280;11751;42.700;24.170;2023-05-23T13:18:34;93625.78;;;23.27;nan
23166;BME280;11751;42.700;24.170;2023-05-23T13:21:00;93612.22;;;23.45;nan
23166;BME280;11751;42.700;24.170;2023-05-23T13:23:25;93615.75;;;23.61;nan
23166;BME280;11751;42.700;24.170;2023-05-23T13:25:51;93611.81;;;23.87;nan
23166;BME280;11751;42.700;24.170;2023-05-23T13:28:17;93609.53;;;23.84;nan
23166;BME280;11751;42.700;24.170;2023-05-23T13:30:42;93606.00;;;24.22;nan
23166;BME280;11751;42.700;24.170;2023-05-23T13:33:07;93598.09;;;24.59;nan
23166;BME280;11751;42.700;24.170;2023-05-23T13:35:33;93612.44;;;24.42;nan
23166;BME280;11751;42.700;24.170;2023-05-23T13:37:58;93603.09;;;25.00;nan
23166;BME280;11751;42.700;24.170;2023-05-23T13:40:24;93604.81;;;25.28;nan
23166;BME280;11751;42.700;24.170;2023-05-23T13:42:50;93600.03;;;24.94;nan
23166;BME280;11751;42.700;24.170;2023-05-23T13:45:16;93592.81;;;24.71;nan
23166;BME280;11751;42.700;24.170;2023-05-23T13:47:42;93585.81;;;24.98;nan
23166;BME280;11751;42.700;24.170;2023-05-23T13:50:08;93596.66;;;24.80;nan
23166;BME280;11751;42.700;24.170;2023-05-23T13:52:34;93590.41;;;24.85;nan
23166;BME280;11751;42.700;24.170;2023-05-23T13:55:00;93591.56;;;24.98;nan
23166;BME280;11751;42.700;24.170;2023-05-23T13:57:26;93583.00;;;25.19;nan
23166;BME280;11751;42.700;24.170;2023-05-23T13:59:52;93592.22;;;25.37;nan
23166;BME280;11751;42.700;24.170;2023-05-23T14:02:17;93589.53;;;25.43;nan
23166;BME280;11751;42.700;24.170;2023-05-23T14:04:43;93590.06;;;25.37;nan
23166;BME280;11751;42.700;24.170;2023-05-23T14:07:08;93576.91;;;25.52;nan
23166;BME280;11751;42.700;24.170;2023-05-23T14:09:33;93584.69;;;25.71;nan
23166;BME280;11751;42.700;24.170;2023-05-23T14:11:59;93589.34;;;25.82;nan
23166;BME280;11751;42.700;24.170;2023-05-23T14:14:24;93579.97;;;26.02;nan
23166;BME280;11751;42.700;24.170;2023-05-23T14:16:51;93589.88;;;25.98;nan
23166;BME280;11751;42.700;24.170;2023-05-23T14:19:16;93591.41;;;26.26;nan
23166;BME280;11751;42.700;24.170;2023-05-23T14:21:43;93581.63;;;26.58;nan
23166;BME280;11751;42.700;24.170;2023-05-23T14:24:08;93591.03;;;26.86;nan
23166;BME280;11751;42.700;24.170;2023-05-23T14:26:33;93579.47;;;26.84;nan
23166;BME280;11751;42.700;24.170;2023-05-23T14:28:59;93587.59;;;26.17;nan
23166;BME280;11751;42.700;24.170;2023-05-23T14:31:24;93595.75;;;26.50;nan
23166;BME280;11751;42.700;24.170;2023-05-23T14:33:50;93592.47;;;26.36;nan